sensor_id;sensor_type;location;lat;lon;timestamp;temperature;humidity
13035;DHT22;6584;48.022;11.810;2022-10-23T00:01:27;11.00;99.90
13035;DHT22;6584;48.022;11.810;2022-10-23T00:04:01;11.00;99.90
13035;DHT22;6584;48.022;11.810;2022-10-23T00:06:28;11.00;99.90
13035;DHT22;6584;48.022;11.810;2022-10-23T00:08:54;11.00;99.90
13035;DHT22;6584;48.022;11.810;2022-10-23T00:11:23;11.00;99.90
13035;DHT22;6584;48.022;11.810;2022-10-23T00:13:50;10.90;99.90
13035;DHT22;6584;48.022;11.810;2022-10-23T00:16:17;11.00;99.90
13035;DHT22;6584;48.022;11.810;2022-10-23T00:18:43;10.90;99.90
13035;DHT22;6584;48.022;11.810;2022-10-23T00:21:11;11.00;99.90
13035;DHT22;6584;48.022;11.810;2022-10-23T00:23:37;10.90;99.90
13035;DHT22;6584;48.022;11.810;2022-10-23T00:26:05;10.90;99.90
13035;DHT22;6584;48.022;11.810;2022-10-23T00:28:31;10.90;99.90
13035;DHT22;6584;48.022;11.810;2022-10-23T00:30:56;10.70;99.90
13035;DHT22;6584;48.022;11.810;2022-10-23T00:33:22;10.70;99.90
13035;DHT22;6584;48.022;11.810;2022-10-23T00:35:47;10.70;99.90
13035;DHT22;6584;48.022;11.810;2022-10-23T00:38:13;10.70;99.90
13035;DHT22;6584;48.022;11.810;2022-10-23T00:40:39;10.70;99.90
13035;DHT22;6584;48.022;11.810;2022-10-23T00:43:09;10.80;99.90
13035;DHT22;6584;48.022;11.810;2022-10-23T00:45:41;10.70;99.90
13035;DHT22;6584;48.022;11.810;2022-10-23T00:48:06;10.70;99.90
13035;DHT22;6584;48.022;11.810;2022-10-23T00:50:32;10.70;99.90
13035;DHT22;6584;48.022;11.810;2022-10-23T00:53:01;10.60;99.90
13035;DHT22;6584;48.022;11.810;2022-10-23T00:55:28;10.60;99.90
13035;DHT22;6584;48.022;11.810;2022-10-23T00:57:55;10.60;99.90
13035;DHT22;6584;48.022;11.810;2022-10-23T01:00:24;10.60;99.90
13035;DHT22;6584;48.022;11.810;2022-10-23T01:02:51;10.60;99.90
13035;DHT22;6584;48.022;11.810;2022-10-23T01:05:18;10.70;99.90
13035;DHT22;6584;48.022;11.810;2022-10-23T01:07:55;10.70;99.90
13035;DHT22;6584;48.022;11.810;2022-10-23T01:10:36;10.70;99.90
13035;DHT22;6584;48.022;11.810;2022-10-23T01:13:11;10.70;99.90
13035;DHT22;6584;48.022;11.810;2022-10-23T01:15:51;10.60;99.90
13035;DHT22;6584;48.022;11.810;2022-10-23T01:18:28;10.60;99.90
13035;DHT22;6584;48.022;11.810;2022-10-23T01:21:16;10.50;99.90
13035;DHT22;6584;48.022;11.810;2022-10-23T01:26:34;10.50;99.90
13035;DHT22;6584;48.022;11.810;2022-10-23T01:29:11;10.60;99.90
13035;DHT22;6584;48.022;11.810;2022-10-23T01:31:44;10.50;99.90
13035;DHT22;6584;48.022;11.810;2022-10-23T01:34:20;10.50;99.90
13035;DHT22;6584;48.022;11.810;2022-10-23T01:36:48;10.40;99.90
13035;DHT22;6584;48.022;11.810;2022-10-23T01:39:19;10.30;99.90
13035;DHT22;6584;48.022;11.810;2022-10-23T01:41:52;10.30;99.90
13035;DHT22;6584;48.022;11.810;2022-10-23T01:47:05;10.30;99.90
13035;DHT22;6584;48.022;11.810;2022-10-23T01:49:32;10.30;99.90
13035;DHT22;6584;48.022;11.810;2022-10-23T01:52:00;10.30;99.90
13035;DHT22;6584;48.022;11.810;2022-10-23T01:54:32;10.20;99.90
13035;DHT22;6584;48.022;11.810;2022-10-23T01:57:01;10.10;99.90
13035;DHT22;6584;48.022;11.810;2022-10-23T01:59:34;10.20;99.90
13035;DHT22;6584;48.022;11.810;2022-10-23T02:02:03;10.10;99.90
13035;DHT22;6584;48.022;11.810;2022-10-23T02:04:36;10.20;99.90
13035;DHT22;6584;48.022;11.810;2022-10-23T02:07:02;10.10;99.90
13035;DHT22;6584;48.022;11.810;2022-10-23T02:09:28;10.10;99.90
13035;DHT22;6584;48.022;11.810;2022-10-23T02:20:36;10.20;99.90
13035;DHT22;6584;48.022;11.810;2022-10-23T02:23:31;10.20;99.90
13035;DHT22;6584;48.022;11.810;2022-10-23T02:26:15;10.20;99.90
13035;DHT22;6584;48.022;11.810;2022-10-23T02:28:46;10.20;99.90
13035;DHT22;6584;48.022;11.810;2022-10-23T02:31:16;10.10;99.90
13035;DHT22;6584;48.022;11.810;2022-10-23T02:33:45;10.00;99.90
13035;DHT22;6584;48.022;11.810;2022-10-23T02:36:11;10.10;99.90
13035;DHT22;6584;48.022;11.810;2022-10-23T02:38:39;10.10;99.90
13035;DHT22;6584;48.022;11.810;2022-10-23T02:43:39;10.10;99.90
13035;DHT22;6584;48.022;11.810;2022-10-23T02:49:17;10.00;99.90
13035;DHT22;6584;48.022;11.810;2022-10-23T02:52:08;9.90;99.90
13035;DHT22;6584;48.022;11.810;2022-10-23T02:54:55;9.90;99.90
13035;DHT22;6584;48.022;11.810;2022-10-23T02:57:38;9.80;99.90
13035;DHT22;6584;48.022;11.810;2022-10-23T03:00:11;9.70;99.90
13035;DHT22;6584;48.022;11.810;2022-10-23T03:03:13;9.70;99.90
13035;DHT22;6584;48.022;11.810;2022-10-23T03:05:40;9.60;99.90
13035;DHT22;6584;48.022;11.810;2022-10-23T03:08:11;9.70;99.90
13035;DHT22;6584;48.022;11.810;2022-10-23T03:10:38;9.60;99.90
13035;DHT22;6584;48.022;11.810;2022-10-23T03:13:03;9.60;99.90
13035;DHT22;6584;48.022;11.810;2022-10-23T03:15:29;9.60;99.90
13035;DHT22;6584;48.022;11.810;2022-10-23T03:17:54;9.70;99.90
13035;DHT22;6584;48.022;11.810;2022-10-23T03:20:20;9.70;99.90
13035;DHT22;6584;48.022;11.810;2022-10-23T03:22:46;9.80;99.90
13035;DHT22;6584;48.022;11.810;2022-10-23T03:25:11;9.80;99.90
13035;DHT22;6584;48.022;11.810;2022-10-23T03:27:37;9.80;99.90
13035;DHT22;6584;48.022;11.810;2022-10-23T03:30:03;9.80;99.90
13035;DHT22;6584;48.022;11.810;2022-10-23T03:32:29;9.80;99.90
13035;DHT22;6584;48.022;11.810;2022-10-23T03:34:55;9.80;99.90
13035;DHT22;6584;48.022;11.810;2022-10-23T03:37:21;9.80;99.90
13035;DHT22;6584;48.022;11.810;2022-10-23T03:39:46;9.80;99.90
13035;DHT22;6584;48.022;11.810;2022-10-23T03:42:12;9.70;99.90
13035;DHT22;6584;48.022;11.810;2022-10-23T03:44:38;9.60;99.90
13035;DHT22;6584;48.022;11.810;2022-10-23T03:47:03;9.70;99.90
13035;DHT22;6584;48.022;11.810;2022-10-23T03:49:29;9.60;99.90
13035;DHT22;6584;48.022;11.810;2022-10-23T03:51:54;9.50;99.90
13035;DHT22;6584;48.022;11.810;2022-10-23T03:54:25;9.60;99.90
13035;DHT22;6584;48.022;11.810;2022-10-23T03:56:51;9.60;99.90
13035;DHT22;6584;48.022;11.810;2022-10-23T03:59:17;9.50;99.90
13035;DHT22;6584;48.022;11.810;2022-10-23T04:01:43;9.60;99.90
13035;DHT22;6584;48.022;11.810;2022-10-23T04:04:09;9.60;99.90
13035;DHT22;6584;48.022;11.810;2022-10-23T04:06:35;9.70;99.90
13035;DHT22;6584;48.022;11.810;2022-10-23T04:09:00;9.60;99.90
13035;DHT22;6584;48.022;11.810;2022-10-23T04:11:26;9.60;99.90
13035;DHT22;6584;48.022;11.810;2022-10-23T04:13:52;9.60;99.90
13035;DHT22;6584;48.022;11.810;2022-10-23T04:16:17;9.60;99.90
13035;DHT22;6584;48.022;11.810;2022-10-23T04:18:43;9.70;99.90
13035;DHT22;6584;48.022;11.810;2022-10-23T04:21:09;9.70;99.90
13035;DHT22;6584;48.022;11.810;2022-10-23T04:23:35;9.70;99.90
13035;DHT22;6584;48.022;11.810;2022-10-23T04:26:00;9.80;99.90
13035;DHT22;6584;48.022;11.810;2022-10-23T04:28:26;9.80;99.90
13035;DHT22;6584;48.022;11.810;2022-10-23T04:30:52;9.80;99.90
13035;DHT22;6584;48.022;11.810;2022-10-23T04:33:18;9.80;99.90
13035;DHT22;6584;48.022;11.810;2022-10-23T04:35:43;9.80;99.90
13035;DHT22;6584;48.022;11.810;2022-10-23T04:38:09;9.80;99.90
13035;DHT22;6584;48.022;11.810;2022-10-23T04:40:35;9.80;99.90
13035;DHT22;6584;48.022;11.810;2022-10-23T04:43:00;9.80;99.90
13035;DHT22;6584;48.022;11.810;2022-10-23T04:45:26;9.90;99.90
13035;DHT22;6584;48.022;11.810;2022-10-23T04:47:52;9.80;99.90
13035;DHT22;6584;48.022;11.810;2022-10-23T04:50:18;9.80;99.90
13035;DHT22;6584;48.022;11.810;2022-10-23T04:52:44;9.80;99.90
13035;DHT22;6584;48.022;11.810;2022-10-23T04:55:10;9.80;99.90
13035;DHT22;6584;48.022;11.810;2022-10-23T04:57:36;9.70;99.90
13035;DHT22;6584;48.022;11.810;2022-10-23T05:00:03;9.70;99.90
13035;DHT22;6584;48.022;11.810;2022-10-23T05:02:29;9.70;99.90
13035;DHT22;6584;48.022;11.810;2022-10-23T05:04:55;9.70;99.90
13035;DHT22;6584;48.022;11.810;2022-10-23T05:07:20;9.80;99.90
13035;DHT22;6584;48.022;11.810;2022-10-23T05:09:46;9.70;99.90
13035;DHT22;6584;48.022;11.810;2022-10-23T05:12:11;9.70;99.90
13035;DHT22;6584;48.022;11.810;2022-10-23T05:14:37;9.70;99.90
13035;DHT22;6584;48.022;11.810;2022-10-23T05:17:18;9.60;99.90
13035;DHT22;6584;48.022;11.810;2022-10-23T05:19:50;9.70;99.90
13035;DHT22;6584;48.022;11.810;2022-10-23T05:22:19;9.60;99.90
13035;DHT22;6584;48.022;11.810;2022-10-23T05:24:45;9.50;99.90
13035;DHT22;6584;48.022;11.810;2022-10-23T05:27:11;9.50;99.90
13035;DHT22;6584;48.022;11.810;2022-10-23T05:29:36;9.50;99.90
13035;DHT22;6584;48.022;11.810;2022-10-23T05:32:04;9.50;99.90
13035;DHT22;6584;48.022;11.810;2022-10-23T05:34:32;9.50;99.90
13035;DHT22;6584;48.022;11.810;2022-10-23T05:37:00;9.50;99.90
13035;DHT22;6584;48.022;11.810;2022-10-23T05:39:26;9.50;99.90
13035;DHT22;6584;48.022;11.810;2022-10-23T05:41:52;9.40;99.90
13035;DHT22;6584;48.022;11.810;2022-10-23T05:44:19;9.40;99.90
13035;DHT22;6584;48.022;11.810;2022-10-23T05:46:45;9.60;99.90
13035;DHT22;6584;48.022;11.810;2022-10-23T05:49:10;9.60;99.90
13035;DHT22;6584;48.022;11.810;2022-10-23T05:51:37;9.50;99.90
13035;DHT22;6584;48.022;11.810;2022-10-23T05:54:03;9.50;99.90
13035;DHT22;6584;48.022;11.810;2022-10-23T05:56:32;9.40;99.90
13035;DHT22;6584;48.022;11.810;2022-10-23T05:58:58;9.40;99.90
13035;DHT22;6584;48.022;11.810;2022-10-23T06:01:23;9.50;99.90
13035;DHT22;6584;48.022;11.810;2022-10-23T06:03:49;9.50;99.90
13035;DHT22;6584;48.022;11.810;2022-10-23T06:06:15;9.60;99.90
13035;DHT22;6584;48.022;11.810;2022-10-23T06:08:41;9.60;99.90
13035;DHT22;6584;48.022;11.810;2022-10-23T06:11:12;9.60;99.90
13035;DHT22;6584;48.022;11.810;2022-10-23T06:13:40;9.60;99.90
13035;DHT22;6584;48.022;11.810;2022-10-23T06:16:21;9.70;99.90
13035;DHT22;6584;48.022;11.810;2022-10-23T06:18:47;9.70;99.90
13035;DHT22;6584;48.022;11.810;2022-10-23T06:21:13;9.70;99.90
13035;DHT22;6584;48.022;11.810;2022-10-23T06:23:40;9.80;99.90
13035;DHT22;6584;48.022;11.810;2022-10-23T06:26:07;9.70;99.90
13035;DHT22;6584;48.022;11.810;2022-10-23T06:28:33;9.80;99.90
13035;DHT22;6584;48.022;11.810;2022-10-23T06:31:06;9.80;99.90
13035;DHT22;6584;48.022;11.810;2022-10-23T06:33:32;9.70;99.90
13035;DHT22;6584;48.022;11.810;2022-10-23T06:35:57;9.80;99.90
13035;DHT22;6584;48.022;11.810;2022-10-23T06:38:23;9.80;99.90
13035;DHT22;6584;48.022;11.810;2022-10-23T06:40:52;9.90;99.90
13035;DHT22;6584;48.022;11.810;2022-10-23T06:43:18;10.00;99.90
13035;DHT22;6584;48.022;11.810;2022-10-23T06:45:44;10.00;99.90
13035;DHT22;6584;48.022;11.810;2022-10-23T06:48:10;10.00;99.90
13035;DHT22;6584;48.022;11.810;2022-10-23T06:50:37;10.00;99.90
13035;DHT22;6584;48.022;11.810;2022-10-23T06:53:03;10.10;99.90
13035;DHT22;6584;48.022;11.810;2022-10-23T06:55:30;10.00;99.90
13035;DHT22;6584;48.022;11.810;2022-10-23T06:57:55;10.10;99.90
13035;DHT22;6584;48.022;11.810;2022-10-23T07:00:23;10.10;99.90
13035;DHT22;6584;48.022;11.810;2022-10-23T07:02:50;10.20;99.90
13035;DHT22;6584;48.022;11.810;2022-10-23T07:05:15;10.30;99.90
13035;DHT22;6584;48.022;11.810;2022-10-23T07:07:41;10.40;99.90
13035;DHT22;6584;48.022;11.810;2022-10-23T07:10:07;10.40;99.90
13035;DHT22;6584;48.022;11.810;2022-10-23T07:12:33;10.50;99.90
13035;DHT22;6584;48.022;11.810;2022-10-23T07:14:58;10.50;99.90
13035;DHT22;6584;48.022;11.810;2022-10-23T07:17:24;10.50;99.90
13035;DHT22;6584;48.022;11.810;2022-10-23T07:19:49;10.50;99.90
13035;DHT22;6584;48.022;11.810;2022-10-23T07:22:15;10.60;99.90
13035;DHT22;6584;48.022;11.810;2022-10-23T07:24:40;10.70;99.90
13035;DHT22;6584;48.022;11.810;2022-10-23T07:27:06;10.60;99.90
13035;DHT22;6584;48.022;11.810;2022-10-23T07:29:32;10.50;99.90
13035;DHT22;6584;48.022;11.810;2022-10-23T07:31:58;10.40;99.90
13035;DHT22;6584;48.022;11.810;2022-10-23T07:34:25;10.50;99.90
13035;DHT22;6584;48.022;11.810;2022-10-23T07:36:51;10.70;99.90
13035;DHT22;6584;48.022;11.810;2022-10-23T07:39:19;10.70;99.90
13035;DHT22;6584;48.022;11.810;2022-10-23T07:41:46;10.90;99.90
13035;DHT22;6584;48.022;11.810;2022-10-23T07:44:12;10.90;99.90
13035;DHT22;6584;48.022;11.810;2022-10-23T07:46:38;11.00;99.90
13035;DHT22;6584;48.022;11.810;2022-10-23T07:49:03;11.10;99.90
13035;DHT22;6584;48.022;11.810;2022-10-23T07:51:29;11.30;99.90
13035;DHT22;6584;48.022;11.810;2022-10-23T07:53:54;11.20;99.90
13035;DHT22;6584;48.022;11.810;2022-10-23T07:56:23;11.30;99.90
13035;DHT22;6584;48.022;11.810;2022-10-23T07:58:52;11.30;99.90
13035;DHT22;6584;48.022;11.810;2022-10-23T08:03:47;11.40;99.90
13035;DHT22;6584;48.022;11.810;2022-10-23T08:06:13;11.30;99.90
13035;DHT22;6584;48.022;11.810;2022-10-23T08:08:39;11.30;99.90
13035;DHT22;6584;48.022;11.810;2022-10-23T08:11:04;11.30;99.90
13035;DHT22;6584;48.022;11.810;2022-10-23T08:13:30;11.40;99.90
13035;DHT22;6584;48.022;11.810;2022-10-23T08:15:56;11.40;99.90
13035;DHT22;6584;48.022;11.810;2022-10-23T08:18:23;11.50;99.90
13035;DHT22;6584;48.022;11.810;2022-10-23T08:20:48;11.50;99.90
13035;DHT22;6584;48.022;11.810;2022-10-23T08:23:17;11.50;99.90
13035;DHT22;6584;48.022;11.810;2022-10-23T08:25:44;11.50;99.90
13035;DHT22;6584;48.022;11.810;2022-10-23T08:28:10;11.60;99.90
13035;DHT22;6584;48.022;11.810;2022-10-23T08:30:36;11.60;99.90
13035;DHT22;6584;48.022;11.810;2022-10-23T08:33:06;11.60;99.90
13035;DHT22;6584;48.022;11.810;2022-10-23T08:35:36;11.70;99.90
13035;DHT22;6584;48.022;11.810;2022-10-23T08:38:02;11.80;99.90
13035;DHT22;6584;48.022;11.810;2022-10-23T08:40:28;11.90;99.90
13035;DHT22;6584;48.022;11.810;2022-10-23T08:45:45;12.30;99.90
13035;DHT22;6584;48.022;11.810;2022-10-23T08:48:45;12.40;99.90
13035;DHT22;6584;48.022;11.810;2022-10-23T08:51:21;12.50;99.90
13035;DHT22;6584;48.022;11.810;2022-10-23T08:56:57;12.70;99.90
13035;DHT22;6584;48.022;11.810;2022-10-23T08:59:37;12.90;99.90
13035;DHT22;6584;48.022;11.810;2022-10-23T09:02:24;13.00;99.90
13035;DHT22;6584;48.022;11.810;2022-10-23T09:04:53;12.90;99.90
13035;DHT22;6584;48.022;11.810;2022-10-23T09:07:41;13.00;99.90
13035;DHT22;6584;48.022;11.810;2022-10-23T09:16:04;13.30;99.90
13035;DHT22;6584;48.022;11.810;2022-10-23T09:18:32;13.40;99.90
13035;DHT22;6584;48.022;11.810;2022-10-23T09:20:58;13.50;99.90
13035;DHT22;6584;48.022;11.810;2022-10-23T09:23:24;13.60;99.90
13035;DHT22;6584;48.022;11.810;2022-10-23T09:25:51;13.70;99.90
13035;DHT22;6584;48.022;11.810;2022-10-23T09:28:22;13.80;99.90
13035;DHT22;6584;48.022;11.810;2022-10-23T09:30:49;13.90;99.90
13035;DHT22;6584;48.022;11.810;2022-10-23T09:33:25;14.00;99.90
13035;DHT22;6584;48.022;11.810;2022-10-23T09:35:58;14.20;99.90
13035;DHT22;6584;48.022;11.810;2022-10-23T09:38:36;14.20;99.90
13035;DHT22;6584;48.022;11.810;2022-10-23T09:41:16;14.30;99.90
13035;DHT22;6584;48.022;11.810;2022-10-23T09:43:42;14.30;99.90
13035;DHT22;6584;48.022;11.810;2022-10-23T09:46:08;14.40;99.90
13035;DHT22;6584;48.022;11.810;2022-10-23T09:48:37;14.40;99.90
13035;DHT22;6584;48.022;11.810;2022-10-23T09:51:17;14.50;99.90
13035;DHT22;6584;48.022;11.810;2022-10-23T09:53:47;14.50;99.90
13035;DHT22;6584;48.022;11.810;2022-10-23T09:56:34;14.60;99.90
13035;DHT22;6584;48.022;11.810;2022-10-23T10:01:31;14.70;99.90
13035;DHT22;6584;48.022;11.810;2022-10-23T10:03:58;14.80;99.90
13035;DHT22;6584;48.022;11.810;2022-10-23T10:06:29;14.80;99.90
13035;DHT22;6584;48.022;11.810;2022-10-23T10:08:57;14.90;99.90
13035;DHT22;6584;48.022;11.810;2022-10-23T10:11:38;15.00;99.90
13035;DHT22;6584;48.022;11.810;2022-10-23T10:14:35;15.20;99.90
13035;DHT22;6584;48.022;11.810;2022-10-23T10:25:20;15.30;99.90
13035;DHT22;6584;48.022;11.810;2022-10-23T10:28:04;15.50;99.90
13035;DHT22;6584;48.022;11.810;2022-10-23T10:30:41;15.50;99.90
13035;DHT22;6584;48.022;11.810;2022-10-23T10:33:31;15.50;99.90
13035;DHT22;6584;48.022;11.810;2022-10-23T10:39:00;15.90;99.90
13035;DHT22;6584;48.022;11.810;2022-10-23T10:41:44;16.00;99.90
13035;DHT22;6584;48.022;11.810;2022-10-23T10:44:30;16.10;99.90
13035;DHT22;6584;48.022;11.810;2022-10-23T10:47:09;16.20;99.90
13035;DHT22;6584;48.022;11.810;2022-10-23T10:49:59;16.30;99.90
13035;DHT22;6584;48.022;11.810;2022-10-23T10:55:34;16.40;99.90
13035;DHT22;6584;48.022;11.810;2022-10-23T10:58:17;16.50;99.90
13035;DHT22;6584;48.022;11.810;2022-10-23T11:00:49;16.60;99.90
13035;DHT22;6584;48.022;11.810;2022-10-23T11:05:54;16.70;99.90
13035;DHT22;6584;48.022;11.810;2022-10-23T11:08:22;16.80;99.90
13035;DHT22;6584;48.022;11.810;2022-10-23T11:10:55;16.90;99.90
13035;DHT22;6584;48.022;11.810;2022-10-23T11:13:26;16.90;99.90
13035;DHT22;6584;48.022;11.810;2022-10-23T11:15:57;16.90;99.90
13035;DHT22;6584;48.022;11.810;2022-10-23T11:18:27;16.90;99.90
13035;DHT22;6584;48.022;11.810;2022-10-23T11:29:11;17.10;99.90
13035;DHT22;6584;48.022;11.810;2022-10-23T11:35:09;17.20;99.90
13035;DHT22;6584;48.022;11.810;2022-10-23T11:37:36;17.20;99.90
13035;DHT22;6584;48.022;11.810;2022-10-23T11:42:46;17.30;99.90
13035;DHT22;6584;48.022;11.810;2022-10-23T11:45:36;17.30;99.90
13035;DHT22;6584;48.022;11.810;2022-10-23T11:48:03;17.30;99.90
13035;DHT22;6584;48.022;11.810;2022-10-23T11:50:49;17.40;99.90
13035;DHT22;6584;48.022;11.810;2022-10-23T11:58:54;17.60;99.90
13035;DHT22;6584;48.022;11.810;2022-10-23T12:01:28;17.60;99.90
13035;DHT22;6584;48.022;11.810;2022-10-23T12:06:44;17.70;99.90
13035;DHT22;6584;48.022;11.810;2022-10-23T12:09:45;17.70;99.90
13035;DHT22;6584;48.022;11.810;2022-10-23T12:12:31;17.80;99.90
13035;DHT22;6584;48.022;11.810;2022-10-23T12:17:39;18.00;99.90
13035;DHT22;6584;48.022;11.810;2022-10-23T12:26:19;18.00;99.90
13035;DHT22;6584;48.022;11.810;2022-10-23T12:36:55;18.20;99.90
13035;DHT22;6584;48.022;11.810;2022-10-23T12:41:53;18.30;99.90
13035;DHT22;6584;48.022;11.810;2022-10-23T12:44:20;18.30;99.90
13035;DHT22;6584;48.022;11.810;2022-10-23T12:46:47;18.40;99.90
13035;DHT22;6584;48.022;11.810;2022-10-23T12:49:19;18.40;99.90
13035;DHT22;6584;48.022;11.810;2022-10-23T12:51:45;18.40;99.90
13035;DHT22;6584;48.022;11.810;2022-10-23T12:54:20;18.40;99.90
13035;DHT22;6584;48.022;11.810;2022-10-23T12:56:46;18.40;99.90
13035;DHT22;6584;48.022;11.810;2022-10-23T12:59:17;18.40;99.90
13035;DHT22;6584;48.022;11.810;2022-10-23T13:01:45;18.30;99.90
13035;DHT22;6584;48.022;11.810;2022-10-23T13:04:30;18.30;99.90
13035;DHT22;6584;48.022;11.810;2022-10-23T13:06:58;18.30;99.90
13035;DHT22;6584;48.022;11.810;2022-10-23T13:09:35;18.40;99.90
13035;DHT22;6584;48.022;11.810;2022-10-23T13:12:04;18.50;99.90
13035;DHT22;6584;48.022;11.810;2022-10-23T13:14:39;18.60;99.90
13035;DHT22;6584;48.022;11.810;2022-10-23T13:17:09;18.60;99.90
13035;DHT22;6584;48.022;11.810;2022-10-23T13:19:35;18.60;99.90
13035;DHT22;6584;48.022;11.810;2022-10-23T13:22:04;18.60;99.90
13035;DHT22;6584;48.022;11.810;2022-10-23T13:24:30;18.60;99.90
13035;DHT22;6584;48.022;11.810;2022-10-23T13:26:56;18.60;99.90
13035;DHT22;6584;48.022;11.810;2022-10-23T13:29:29;18.60;99.90
13035;DHT22;6584;48.022;11.810;2022-10-23T13:31:56;18.70;99.90
13035;DHT22;6584;48.022;11.810;2022-10-23T13:34:29;18.70;99.90
13035;DHT22;6584;48.022;11.810;2022-10-23T13:37:20;18.80;99.90
13035;DHT22;6584;48.022;11.810;2022-10-23T13:39:46;18.70;99.90
13035;DHT22;6584;48.022;11.810;2022-10-23T13:42:22;18.70;99.90
13035;DHT22;6584;48.022;11.810;2022-10-23T13:44:48;18.70;99.90
13035;DHT22;6584;48.022;11.810;2022-10-23T13:47:15;18.80;99.90
13035;DHT22;6584;48.022;11.810;2022-10-23T13:49:41;18.70;99.90
13035;DHT22;6584;48.022;11.810;2022-10-23T13:52:08;18.70;99.90
13035;DHT22;6584;48.022;11.810;2022-10-23T13:54:36;18.60;99.90
13035;DHT22;6584;48.022;11.810;2022-10-23T13:57:01;18.60;99.90
13035;DHT22;6584;48.022;11.810;2022-10-23T13:59:27;18.50;99.90
13035;DHT22;6584;48.022;11.810;2022-10-23T14:01:52;18.60;99.90
13035;DHT22;6584;48.022;11.810;2022-10-23T14:04:18;18.50;99.90
13035;DHT22;6584;48.022;11.810;2022-10-23T14:06:45;18.40;99.90
13035;DHT22;6584;48.022;11.810;2022-10-23T14:09:13;18.40;99.90
13035;DHT22;6584;48.022;11.810;2022-10-23T14:11:39;18.30;99.90
13035;DHT22;6584;48.022;11.810;2022-10-23T14:14:05;18.40;99.90
13035;DHT22;6584;48.022;11.810;2022-10-23T14:16:31;18.40;99.90
13035;DHT22;6584;48.022;11.810;2022-10-23T14:18:56;18.40;99.90
13035;DHT22;6584;48.022;11.810;2022-10-23T14:21:23;18.30;99.90
13035;DHT22;6584;48.022;11.810;2022-10-23T14:23:50;18.30;99.90
13035;DHT22;6584;48.022;11.810;2022-10-23T14:26:20;18.30;99.90
13035;DHT22;6584;48.022;11.810;2022-10-23T14:28:46;18.30;99.90
13035;DHT22;6584;48.022;11.810;2022-10-23T14:31:14;18.20;99.90
13035;DHT22;6584;48.022;11.810;2022-10-23T14:33:40;18.20;99.90
13035;DHT22;6584;48.022;11.810;2022-10-23T14:36:07;18.20;99.90
13035;DHT22;6584;48.022;11.810;2022-10-23T14:38:33;18.10;99.90
13035;DHT22;6584;48.022;11.810;2022-10-23T14:40:58;18.10;99.90
13035;DHT22;6584;48.022;11.810;2022-10-23T14:43:24;18.00;99.90
13035;DHT22;6584;48.022;11.810;2022-10-23T14:45:50;18.00;99.90
13035;DHT22;6584;48.022;11.810;2022-10-23T14:48:16;17.90;99.90
13035;DHT22;6584;48.022;11.810;2022-10-23T14:50:44;17.90;99.90
13035;DHT22;6584;48.022;11.810;2022-10-23T14:53:10;17.80;99.90
13035;DHT22;6584;48.022;11.810;2022-10-23T14:55:35;17.70;99.90
13035;DHT22;6584;48.022;11.810;2022-10-23T14:58:01;17.70;99.90
13035;DHT22;6584;48.022;11.810;2022-10-23T15:00:26;17.70;99.90
13035;DHT22;6584;48.022;11.810;2022-10-23T15:02:52;17.60;99.90
13035;DHT22;6584;48.022;11.810;2022-10-23T15:05:18;17.60;99.90
13035;DHT22;6584;48.022;11.810;2022-10-23T15:07:43;17.60;99.90
13035;DHT22;6584;48.022;11.810;2022-10-23T15:10:09;17.50;99.90
13035;DHT22;6584;48.022;11.810;2022-10-23T15:12:36;17.60;99.90
13035;DHT22;6584;48.022;11.810;2022-10-23T15:15:02;17.50;99.90
13035;DHT22;6584;48.022;11.810;2022-10-23T15:17:28;17.40;99.90
13035;DHT22;6584;48.022;11.810;2022-10-23T15:19:53;17.40;99.90
13035;DHT22;6584;48.022;11.810;2022-10-23T15:22:19;17.40;99.90
13035;DHT22;6584;48.022;11.810;2022-10-23T15:24:45;17.30;99.90
13035;DHT22;6584;48.022;11.810;2022-10-23T15:27:12;17.30;99.90
13035;DHT22;6584;48.022;11.810;2022-10-23T15:29:37;17.20;99.90
13035;DHT22;6584;48.022;11.810;2022-10-23T15:32:04;17.20;99.90
13035;DHT22;6584;48.022;11.810;2022-10-23T15:34:30;17.20;99.90
13035;DHT22;6584;48.022;11.810;2022-10-23T15:36:57;17.20;99.90
13035;DHT22;6584;48.022;11.810;2022-10-23T15:39:25;17.10;99.90
13035;DHT22;6584;48.022;11.810;2022-10-23T15:41:54;17.20;99.90
13035;DHT22;6584;48.022;11.810;2022-10-23T15:44:23;17.10;99.90
13035;DHT22;6584;48.022;11.810;2022-10-23T15:46:49;17.00;99.90
13035;DHT22;6584;48.022;11.810;2022-10-23T15:49:16;17.00;99.90
13035;DHT22;6584;48.022;11.810;2022-10-23T15:51:43;16.90;99.90
13035;DHT22;6584;48.022;11.810;2022-10-23T15:54:14;16.90;99.90
13035;DHT22;6584;48.022;11.810;2022-10-23T15:56:42;16.80;99.90
13035;DHT22;6584;48.022;11.810;2022-10-23T15:59:08;16.80;99.90
13035;DHT22;6584;48.022;11.810;2022-10-23T16:01:33;16.80;99.90
13035;DHT22;6584;48.022;11.810;2022-10-23T16:03:59;16.80;99.90
13035;DHT22;6584;48.022;11.810;2022-10-23T16:06:25;16.80;99.90
13035;DHT22;6584;48.022;11.810;2022-10-23T16:08:50;16.70;99.90
13035;DHT22;6584;48.022;11.810;2022-10-23T16:11:22;16.70;99.90
13035;DHT22;6584;48.022;11.810;2022-10-23T16:13:48;16.60;99.90
13035;DHT22;6584;48.022;11.810;2022-10-23T16:16:15;16.60;99.90
13035;DHT22;6584;48.022;11.810;2022-10-23T16:18:41;16.60;99.90
13035;DHT22;6584;48.022;11.810;2022-10-23T16:21:21;16.60;99.90
13035;DHT22;6584;48.022;11.810;2022-10-23T16:23:48;16.60;99.90
13035;DHT22;6584;48.022;11.810;2022-10-23T16:26:15;16.60;99.90
13035;DHT22;6584;48.022;11.810;2022-10-23T16:28:41;16.50;99.90
13035;DHT22;6584;48.022;11.810;2022-10-23T16:31:16;16.40;99.90
13035;DHT22;6584;48.022;11.810;2022-10-23T16:33:43;16.40;99.90
13035;DHT22;6584;48.022;11.810;2022-10-23T16:36:09;16.50;99.90
13035;DHT22;6584;48.022;11.810;2022-10-23T16:38:35;16.40;99.90
13035;DHT22;6584;48.022;11.810;2022-10-23T16:41:01;16.40;99.90
13035;DHT22;6584;48.022;11.810;2022-10-23T16:43:27;16.40;99.90
13035;DHT22;6584;48.022;11.810;2022-10-23T16:48:29;16.40;99.90
13035;DHT22;6584;48.022;11.810;2022-10-23T16:50:54;16.40;99.90
13035;DHT22;6584;48.022;11.810;2022-10-23T16:53:20;16.40;99.90
13035;DHT22;6584;48.022;11.810;2022-10-23T16:55:45;16.40;99.90
13035;DHT22;6584;48.022;11.810;2022-10-23T16:58:11;16.40;99.90
13035;DHT22;6584;48.022;11.810;2022-10-23T17:00:37;16.50;99.90
13035;DHT22;6584;48.022;11.810;2022-10-23T17:03:03;16.40;99.90
13035;DHT22;6584;48.022;11.810;2022-10-23T17:05:33;16.40;99.90
13035;DHT22;6584;48.022;11.810;2022-10-23T17:07:59;16.30;99.90
13035;DHT22;6584;48.022;11.810;2022-10-23T17:10:24;16.30;99.90
13035;DHT22;6584;48.022;11.810;2022-10-23T17:12:50;16.30;99.90
13035;DHT22;6584;48.022;11.810;2022-10-23T17:15:16;16.20;99.90
13035;DHT22;6584;48.022;11.810;2022-10-23T17:17:42;16.30;99.90
13035;DHT22;6584;48.022;11.810;2022-10-23T17:20:08;16.30;99.90
13035;DHT22;6584;48.022;11.810;2022-10-23T17:22:33;16.20;99.90
13035;DHT22;6584;48.022;11.810;2022-10-23T17:25:00;16.20;99.90